Date,TemperatureHighF,TemperatureAvgF,TemperatureLowF,DewpointHighF,DewpointAvgF,DewpointLowF,HumidityHigh,HumidityAvg,HumidityLow,PressureMaxIn,PressureMinIn,WindSpeedMaxMPH,WindSpeedAvgMPH,GustSpeedMaxMPH,PrecipitationSumIn
2012-1-1,43.5,39.0,35.1,42.1,38.3,35.1,100,98,84,29.97,29.47,11,2,19,0.00
2012-1-2,42.4,32.6,21.8,42.2,26.7,11.9,100,79,62,29.61,29.44,15,7,19,0.01
2012-1-3,21.9,12.5,2.7,15.5,5.9,-2.4,94,75,61,29.99,29.60,12,1,14,0.00
2012-1-4,18.1,9.9,0.8,12.5,4.0,-1.7,92,77,63,30.04,29.76,3,0,6,0.00
2012-1-5,26.0,20.4,13.3,24.9,19.2,12.4,100,95,79,29.79,29.64,8,0,10,0.00
2012-1-6,37.5,28.7,14.1,32.7,26.8,14.0,100,93,80,29.78,29.58,5,0,8,0.00
2012-1-7,40.9,38.5,34.3,35.3,32.9,29.0,94,80,70,29.82,29.58,10,1,14,0.19
2012-1-8,37.5,29.3,18.0,29.1,22.4,16.6,94,75,64,30.20,29.82,14,3,21,0.22
2012-1-9,32.6,25.1,16.8,24.1,19.5,15.6,97,80,56,30.20,29.80,6,0,9,0.06
2012-1-10,35.4,31.5,25.8,29.4,24.1,15.5,91,74,53,29.90,29.67,8,1,10,0.00
2012-1-11,32.4,26.8,18.5,27.0,22.4,17.7,98,84,69,30.03,29.89,17,2,24,0.00
2012-1-12,32.9,30.9,27.1,31.7,29.5,27.0,100,94,85,29.90,29.40,24,5,36,0.22
2012-1-13,42.2,30.9,21.3,39.9,30.1,21.3,100,97,88,29.44,28.99,18,6,24,0.05
2012-1-14,26.4,15.4,2.9,24.8,11.2,0.8,94,84,68,29.95,29.44,14,3,19,0.08
2012-1-15,8.7,1.8,-3.4,0.6,-2.5,-5.5,93,82,65,30.41,29.95,10,1,16,0.00
2012-1-16,26.3,12.8,-2.5,20.9,6.0,-3.8,96,76,51,30.44,29.95,12,0,12,0.00
2012-1-17,45.1,33.2,26.0,44.9,32.6,20.7,100,98,80,29.95,29.25,20,1,30,0.03
2012-1-18,45.2,23.3,10.5,44.6,15.0,3.3,100,71,57,30.07,29.27,28,6,30,0.00
2012-1-19,26.8,16.7,5.1,21.6,9.3,1.8,94,74,42,30.11,29.78,14,2,22,0.00
2012-1-20,24.5,18.2,9.6,23.2,10.5,1.4,96,73,47,30.17,29.77,14,3,15,0.02
2012-1-21,19.2,12.3,6.2,14.9,8.4,1.7,97,84,66,30.23,30.02,9,0,10,0.00
2012-1-22,28.6,17.2,4.4,23.5,11.5,3.9,100,80,54,30.41,30.23,9,1,13,0.02
2012-1-23,44.8,36.6,26.5,44.8,34.7,23.3,100,93,88,30.29,29.72,14,4,20,0.14
2012-1-24,45.9,39.3,30.8,45.9,37.3,28.9,100,93,83,29.97,29.71,15,6,18,0.00
2012-1-25,31.3,29.7,27.9,30.5,26.5,25.2,100,88,82,30.15,29.97,11,4,14,0.00
2012-1-26,36.4,31.0,26.5,31.9,27.5,24.9,99,87,67,30.14,29.78,11,1,16,0.01
2012-1-27,42.3,36.2,32.1,42.2,35.8,30.2,100,99,92,29.79,29.19,14,3,22,0.00
2012-1-28,41.6,34.5,30.1,32.0,29.5,24.8,97,83,64,29.91,29.62,18,3,23,0.00
2012-1-29,35.2,30.5,26.7,25.9,20.5,16.9,83,66,53,29.94,29.75,18,5,28,0.00
2012-1-30,31.4,26.1,20.7,28.0,18.9,11.9,98,75,56,30.15,29.82,12,2,17,0.00
2012-1-31,42.3,31.6,21.4,33.5,26.9,16.6,100,84,66,30.14,29.85,9,0,10,0.00
2012-2-1,47.2,42.6,37.1,45.4,36.7,31.0,95,80,63,29.89,29.69,17,5,19,0.00
2012-2-2,37.2,28.2,18.5,31.4,24.2,14.2,94,85,78,30.20,29.89,10,2,13,1.73
2012-2-3,31.9,24.1,15.4,25.8,17.7,13.6,98,78,55,30.33,30.15,7,0,10,0.00
2012-2-4,31.3,25.8,15.5,28.2,19.9,13.2,98,79,53,30.17,30.04,9,1,11,0.01
2012-2-5,28.8,19.8,10.2,18.7,14.6,9.8,99,81,58,30.09,29.95,12,1,13,0.33
2012-2-6,43.9,33.7,22.7,28.8,23.7,16.9,91,68,44,29.95,29.75,12,5,18,0.00
2012-2-7,35.6,29.1,16.1,28.3,21.9,13.2,88,74,64,30.18,29.81,10,2,15,0.00
2012-2-8,32.9,22.6,10.9,16.6,12.7,9.1,95,69,37,30.19,29.96,7,0,10,0.00
2012-2-9,39.4,30.1,20.6,22.5,18.3,15.1,87,62,43,30.00,29.91,9,1,11,0.01
2012-2-10,41.1,31.5,24.1,22.1,18.8,16.4,76,60,38,30.00,29.78,11,1,14,0.00
2012-2-11,32.8,24.2,8.3,26.1,16.8,5.1,89,74,58,29.79,29.58,9,1,11,0.00
2012-2-12,13.5,8.8,4.0,4.9,1.0,-3.0,86,71,54,29.73,29.58,12,1,15,0.00
2012-2-13,36.3,24.0,9.8,21.2,13.8,1.9,98,67,35,29.85,29.65,17,4,20,0.00
2012-2-14,38.0,30.8,24.7,28.7,20.5,16.5,89,67,42,29.98,29.85,9,1,11,0.00
2012-2-15,41.4,35.7,31.4,33.1,29.5,25.4,92,79,59,30.19,29.97,6,0,6,0.03
2012-2-16,42.7,35.7,31.3,35.0,31.4,28.3,100,85,58,30.19,29.87,6,0,6,0.00
2012-2-17,40.9,35.7,31.6,36.7,29.1,19.7,100,79,54,29.87,29.80,15,4,18,0.00
2012-2-18,38.2,32.0,28.3,30.1,25.1,21.8,100,77,56,29.92,29.76,11,3,13,0.05
2012-2-19,36.9,27.4,20.5,28.5,21.3,17.4,99,79,52,30.02,29.92,7,0,10,0.00
2012-2-20,34.9,25.2,18.3,18.0,15.1,12.4,89,67,40,30.21,29.95,10,1,16,0.00
2012-2-21,44.1,30.1,17.3,31.7,20.3,16.1,96,71,35,30.24,29.70,11,2,16,0.03
2012-2-22,46.2,39.5,34.7,36.7,32.1,24.5,98,77,44,29.70,29.36,14,4,21,0.04
2012-2-23,41.1,36.1,28.7,37.0,31.7,24.8,99,84,68,29.69,29.28,11,2,16,0.00
2012-2-24,35.6,32.1,27.8,34.7,28.8,24.9,100,88,72,29.69,29.13,12,1,14,0.12
2012-2-25,34.6,28.3,19.4,34.6,24.5,19.0,100,86,68,29.80,29.11,20,6,23,0.00
2012-2-26,33.9,21.5,9.1,19.1,10.9,6.0,99,67,36,30.32,29.80,10,1,11,0.00
2012-2-27,44.7,30.3,15.1,29.5,21.2,11.1,92,70,43,30.31,29.92,21,2,23,0.00
2012-2-28,35.6,30.1,21.9,28.2,20.5,15.7,95,69,47,30.29,29.99,13,3,21,0.00
2012-2-29,32.8,27.7,22.5,28.9,23.8,19.1,95,85,72,30.28,29.75,19,2,26,0.00
2012-3-1,29.4,26.5,24.2,27.2,24.5,20.9,100,92,80,29.89,29.64,24,6,33,0.00
2012-3-2,42.9,30.6,24.4,30.8,26.3,22.3,95,85,61,29.98,29.71,15,2,21,0.00
2012-3-3,51.3,38.6,31.1,41.4,29.0,18.0,95,72,28,29.71,29.25,18,7,24,0.00
2012-3-4,38.2,31.7,22.9,29.3,22.6,18.5,92,70,52,29.54,29.45,10,2,16,0.00
2012-3-5,32.3,20.0,11.3,19.5,11.5,6.9,95,71,42,30.22,29.54,10,1,12,0.00
2012-3-6,39.5,22.1,5.9,15.0,8.4,4.3,95,61,24,30.45,30.22,8,0,10,0.00
2012-3-7,57.2,43.4,27.0,25.7,21.7,14.6,74,45,22,30.37,30.13,12,2,16,0.00
2012-3-8,61.8,52.3,37.7,52.2,40.5,25.2,98,67,38,30.14,29.61,20,5,26,0.00
2012-3-9,41.2,33.5,26.1,36.3,25.4,17.2,100,75,41,30.06,29.77,14,2,23,0.00
2012-3-10,43.3,28.9,23.7,28.2,22.5,17.5,99,79,39,30.39,30.06,8,0,15,0.00
2012-3-11,57.3,39.4,24.7,29.6,23.4,16.4,85,55,30,30.34,30.17,13,1,16,0.00
2012-3-12,64.7,49.4,35.5,35.3,30.8,26.7,82,52,24,30.22,30.02,9,0,11,0.00
2012-3-13,66.0,54.5,45.5,50.4,40.2,30.6,79,59,42,30.04,29.84,12,2,15,0.00
2012-3-14,49.5,45.0,40.1,40.5,35.8,32.6,86,71,55,30.19,29.92,13,1,13,0.00
2012-3-15,56.7,44.4,34.7,41.0,37.7,33.4,99,79,49,30.27,30.16,6,1,8,0.00
2012-3-16,44.6,42.2,38.3,44.5,41.5,37.3,100,97,90,30.19,30.03,8,0,9,0.11
2012-3-17,67.0,48.6,40.0,45.6,40.7,36.0,100,78,33,30.31,30.16,10,2,10,0.00
2012-3-18,79.4,58.6,42.8,48.9,41.5,30.8,96,60,17,30.26,30.10,10,2,11,0.00
2012-3-19,80.2,62.4,51.8,49.6,46.0,38.8,83,59,24,30.20,30.09,8,2,9,0.01
2012-3-20,84.7,65.0,53.4,51.6,45.9,33.0,83,55,16,30.30,30.18,9,3,12,0.00
2012-3-21,87.0,65.4,52.4,53.7,46.5,32.6,89,56,15,30.34,30.23,7,2,10,0.00
2012-3-22,81.7,65.6,51.6,55.6,50.0,40.4,96,62,23,30.26,30.06,8,1,10,0.00
2012-3-23,74.7,59.1,47.0,51.8,32.9,13.9,84,45,10,30.18,30.06,13,1,16,0.00
2012-3-24,52.4,46.2,42.7,32.5,27.2,14.3,64,48,32,30.11,29.95,6,0,7,0.00
2012-3-25,48.2,44.6,41.8,44.1,41.8,30.3,96,90,58,29.96,29.65,0,0,7,0.00
2012-3-26,45.2,33.9,23.6,44.5,20.5,3.8,99,60,32,30.01,29.57,27,4,27,0.00
2012-3-27,51.4,30.4,18.6,10.0,2.2,-19.4,52,34,6,30.20,29.99,12,3,20,0.00
2012-3-28,51.2,40.9,31.7,40.7,27.3,7.3,92,59,36,30.07,29.47,8,0,12,0.00
2012-3-29,45.5,36.0,31.4,40.8,33.3,29.6,98,90,74,29.88,29.50,10,1,14,0.00
2012-3-30,53.6,36.7,26.3,29.8,17.1,5.9,94,49,15,30.02,29.87,13,1,14,0.00
2012-3-31,48.5,37.8,30.9,32.0,25.3,13.6,88,62,46,29.95,29.80,10,0,11,0.00
2012-4-1,48.5,37.3,28.5,35.9,30.8,25.6,100,80,45,29.82,29.58,7,1,9,0.00
2012-4-2,62.1,40.0,31.7,37.8,24.9,2.3,100,65,10,29.78,29.57,16,2,21,0.00
2012-4-3,68.5,40.1,24.9,20.5,11.7,-4.9,70,37,6,29.83,29.67,12,2,18,0.00
2012-4-4,57.4,42.5,31.2,35.7,23.8,13.7,94,53,18,29.69,29.47,11,1,19,0.00
2012-4-5,42.9,35.8,31.8,34.5,27.9,21.9,97,75,48,29.84,29.63,13,1,14,0.00
2012-4-6,64.4,39.5,30.3,27.1,20.2,2.3,81,51,9,29.97,29.83,15,2,18,0.00
2012-4-7,53.0,40.4,29.0,23.1,18.6,13.7,62,43,21,29.98,29.92,13,2,17,0.00
2012-4-8,63.2,43.4,34.9,27.7,24.5,17.4,69,49,17,29.95,29.51,10,1,16,0.00
2012-4-9,43.8,38.8,34.4,37.5,35.0,26.1,100,87,50,29.51,29.42,12,3,16,0.00
2012-4-10,45.9,41.0,37.9,37.5,34.7,31.4,93,78,64,29.69,29.48,12,4,18,0.00
2012-4-11,60.1,43.3,36.8,41.9,34.5,30.9,90,73,41,29.87,29.68,9,1,9,0.00
2012-4-12,55.1,42.6,33.4,41.9,33.4,25.0,100,74,32,30.06,29.87,10,2,13,0.00
2012-4-13,77.9,49.2,32.0,36.1,23.7,1.3,96,50,6,30.12,30.00,10,2,14,0.00
2012-4-14,77.7,53.4,35.5,31.7,21.1,4.2,76,36,6,30.11,29.95,11,2,16,0.00
2012-4-15,66.9,58.9,51.0,55.6,44.2,28.4,87,59,39,29.99,29.91,10,2,13,0.00
2012-4-16,93.0,72.6,59.2,58.1,46.3,16.7,93,51,6,29.98,29.84,18,3,19,0.00
2012-4-17,79.8,63.9,45.4,53.5,30.4,4.8,59,33,6,30.20,29.87,12,5,16,0.00
2012-4-18,61.5,46.5,33.1,29.9,26.9,22.1,78,50,22,30.25,30.03,8,1,9,0.00
2012-4-19,75.6,56.0,35.6,35.1,27.8,14.0,84,43,10,30.03,29.91,12,2,13,0.00
2012-4-20,85.5,66.0,51.3,45.8,35.0,11.5,67,37,6,29.95,29.79,14,2,16,0.00
2012-4-21,70.4,56.0,40.6,52.1,46.6,39.7,97,73,46,29.82,29.68,9,1,12,0.00
2012-4-22,41.4,38.0,34.6,40.6,37.7,34.6,100,99,96,29.84,29.64,11,0,11,0.00
2012-4-23,67.8,50.2,38.3,56.4,45.2,38.0,100,84,57,29.64,29.17,22,5,30,0.00
2012-4-24,54.4,44.8,38.9,41.3,37.0,30.1,91,75,48,29.57,29.22,17,4,21,0.00
2012-4-25,59.4,43.8,37.9,37.9,33.1,28.8,88,68,34,29.83,29.58,12,2,15,0.00
2012-4-26,67.5,48.2,32.2,46.4,34.5,24.0,96,65,20,29.85,29.51,13,2,15,0.00
2012-4-27,47.6,38.7,31.4,46.4,34.6,24.6,99,85,71,30.00,29.51,13,4,18,0.00
2012-4-28,64.0,40.9,28.8,25.9,20.6,7.1,81,51,11,30.09,29.98,14,2,16,0.00
2012-4-29,63.8,43.2,30.0,25.6,12.9,-6.5,79,37,6,30.20,30.02,12,2,18,0.00
2012-4-30,66.2,48.5,31.9,29.0,17.0,4.9,56,31,10,30.29,30.08,8,0,12,0.00
2012-5-1,52.4,47.5,44.1,49.1,42.2,25.5,95,84,35,30.09,29.98,10,1,13,0.00
2012-5-2,64.6,52.5,43.2,49.3,45.7,43.0,100,80,52,30.13,30.06,9,1,12,0.00
2012-5-3,68.3,54.6,47.5,52.9,49.4,46.1,98,84,53,30.11,30.01,7,1,11,0.00
2012-5-4,74.5,59.7,51.4,62.9,55.9,51.0,100,89,61,30.04,29.86,6,0,8,0.00
2012-5-5,75.3,54.7,45.9,56.2,46.3,38.1,98,77,27,30.08,29.91,7,1,11,0.00
2012-5-6,79.3,55.4,41.1,43.6,34.6,20.1,88,54,11,30.09,30.03,10,1,12,0.02
2012-5-7,81.1,60.7,41.4,45.2,24.6,5.0,66,34,5,30.09,29.98,9,1,11,0.00
2012-5-8,61.4,53.6,49.4,54.9,50.2,44.7,99,89,55,30.00,29.76,11,0,15,0.00
2012-5-9,66.2,59.2,54.9,61.8,56.6,52.9,100,92,73,29.79,29.58,7,0,8,0.01
2012-5-10,55.8,50.6,43.3,53.3,49.4,43.1,100,96,87,29.66,29.43,8,0,11,0.00
2012-5-11,76.5,52.6,41.9,46.6,37.2,14.1,100,66,10,30.02,29.66,9,1,12,0.00
2012-5-12,88.1,60.6,39.5,42.0,32.9,12.6,90,47,6,30.15,30.02,9,2,12,0.00
2012-5-13,83.3,65.3,54.4,57.8,47.7,40.0,85,56,22,30.15,30.09,7,1,10,0.00
2012-5-14,68.4,61.1,55.0,58.0,55.1,51.6,94,82,62,30.15,30.09,8,0,10,0.00
2012-5-15,62.0,59.2,57.5,59.3,57.5,56.0,98,94,88,30.12,29.94,10,1,14,0.02
2012-5-16,84.0,65.5,56.4,62.6,55.9,32.9,97,76,17,29.95,29.76,10,1,13,0.00
2012-5-17,77.2,56.8,45.8,49.9,38.3,22.5,87,56,13,30.15,29.92,8,2,14,0.00
2012-5-18,83.6,59.1,40.5,43.8,34.3,12.2,90,49,7,30.22,30.14,8,2,9,0.00
2012-5-19,90.2,65.8,48.9,50.0,41.5,27.1,82,49,11,30.20,30.13,8,2,9,0.00
2012-5-20,95.8,73.5,58.3,52.5,44.8,25.9,74,44,9,30.29,30.19,9,1,10,0.00
2012-5-21,82.2,68.2,56.1,59.4,49.3,34.7,81,53,26,30.27,30.05,7,0,12,0.00
2012-5-22,71.5,66.4,62.3,63.6,59.9,57.6,93,80,64,30.05,29.85,7,0,9,0.00
2012-5-23,79.3,64.2,60.1,64.2,60.4,57.8,96,89,55,30.04,29.86,5,0,8,0.00
2012-5-24,80.7,68.0,58.1,64.2,59.7,57.0,98,77,49,30.19,30.03,8,1,16,0.00
2012-5-25,74.8,68.4,64.1,65.4,61.6,59.2,90,79,67,30.20,30.07,9,1,13,0.00
2012-5-26,88.3,72.4,61.3,64.9,55.8,39.6,93,62,19,30.16,30.07,7,1,9,0.00
2012-5-27,86.3,68.3,55.1,56.0,51.1,43.2,84,58,22,30.19,30.04,6,1,8,0.00
2012-5-28,89.7,71.6,57.7,63.3,54.7,48.8,79,58,27,30.04,29.86,6,0,8,0.00
2012-5-29,87.4,73.2,63.8,69.8,65.8,61.9,94,79,51,29.87,29.69,9,0,15,0.00
2012-5-30,76.5,66.6,61.3,63.0,60.5,54.9,96,82,49,29.76,29.69,7,0,9,0.04
2012-5-31,80.0,62.9,51.7,58.2,50.5,42.4,97,68,28,29.96,29.70,6,0,10,0.00
2012-6-1,73.8,61.0,49.9,48.7,45.4,41.4,86,59,36,30.04,29.89,9,1,15,0.00
2012-6-2,60.0,54.9,49.5,54.2,49.2,38.0,97,83,47,29.89,29.68,21,2,26,0.00
2012-6-3,74.9,58.4,51.9,57.9,52.8,48.2,98,84,47,29.72,29.61,9,1,23,0.01
2012-6-4,55.3,51.9,49.2,51.8,49.0,47.4,97,90,80,29.81,29.62,11,1,15,0.03
2012-6-5,63.8,53.3,47.0,53.1,49.8,46.2,99,89,62,29.91,29.77,8,0,16,0.38
2012-6-6,70.7,54.8,47.8,59.5,52.2,47.6,100,92,60,29.95,29.90,6,0,10,0.13
2012-6-7,75.9,59.5,49.5,57.5,52.0,48.0,100,80,38,29.95,29.89,6,0,8,0.02
2012-6-8,76.9,61.6,50.7,60.9,53.6,49.2,97,77,47,29.90,29.74,8,0,12,0.00
2012-6-9,78.3,62.2,49.6,56.9,52.7,47.0,99,75,35,29.96,29.80,8,0,9,0.01
2012-6-10,87.0,67.4,53.1,58.5,54.2,48.8,95,67,28,30.17,29.96,8,1,9,0.00
2012-6-11,89.0,71.8,61.8,63.3,57.9,53.2,91,65,31,30.23,30.14,11,1,12,0.00
2012-6-12,77.3,66.1,58.8,62.3,58.3,53.9,94,77,54,30.16,29.91,8,0,11,0.00
2012-6-13,81.5,66.6,57.3,64.9,58.2,51.1,98,78,37,30.13,29.86,7,1,10,0.00
2012-6-14,82.8,64.8,52.8,52.9,49.2,41.8,92,62,24,30.29,30.13,8,0,11,0.00
2012-6-15,89.2,67.3,54.9,51.1,45.2,17.2,77,51,7,30.35,30.26,8,1,11,0.00
2012-6-16,89.1,68.9,55.2,54.9,51.1,46.4,89,58,23,30.34,30.21,10,2,14,0.00
2012-6-17,86.1,67.9,55.2,58.8,54.0,51.8,90,64,32,30.23,30.05,9,1,14,0.00
2012-6-18,84.5,66.8,55.0,57.0,53.3,48.2,91,65,31,30.11,30.05,8,1,10,0.00
2012-6-19,77.8,67.3,59.6,65.1,59.9,53.9,87,77,62,30.13,30.03,5,0,7,0.00
2012-6-20,91.5,76.9,66.9,73.9,67.9,64.4,94,75,48,30.09,29.99,6,0,7,0.00
2012-6-21,95.2,78.9,68.1,67.7,64.0,57.3,90,64,29,29.99,29.83,5,0,6,0.00
2012-6-22,87.9,75.5,65.7,65.5,59.7,51.8,83,60,31,29.85,29.79,7,1,8,0.00
2012-6-23,79.3,66.7,59.3,62.7,58.7,54.8,90,76,50,29.98,29.83,6,1,9,0.00
2012-6-24,87.1,67.5,54.6,57.9,52.4,38.8,96,65,19,30.00,29.89,6,0,10,0.00
2012-6-25,74.7,62.8,57.2,64.7,58.9,55.5,95,87,62,29.89,29.65,6,0,8,0.00
2012-6-26,58.1,55.3,52.7,57.5,54.5,51.6,100,97,94,29.71,29.61,5,0,7,0.00
2012-6-27,61.8,57.7,54.6,60.3,57.1,54.6,100,98,93,29.78,29.58,4,0,6,0.01
2012-6-28,88.0,67.1,55.0,62.7,57.1,48.1,100,76,27,29.78,29.69,8,1,10,0.13
2012-6-29,89.7,72.2,61.1,69.8,57.5,37.6,97,67,18,29.72,29.60,9,2,12,0.00
2012-6-30,88.7,72.7,59.9,58.6,54.3,46.3,88,57,24,29.77,29.65,9,1,11,0.00
2012-7-1,84.6,71.1,63.4,66.0,60.3,53.5,90,71,36,29.90,29.75,5,0,7,0.00
2012-7-2,84.9,68.7,60.5,62.7,59.6,54.9,96,75,36,29.95,29.87,6,0,8,0.00
2012-7-3,86.9,68.7,56.3,61.0,56.2,49.0,97,70,28,29.97,29.82,7,1,8,0.00
2012-7-4,86.5,72.4,63.8,69.5,63.5,56.1,95,76,43,29.84,29.73,6,1,8,0.00
2012-7-5,80.4,69.0,62.8,64.4,61.1,57.5,94,78,49,29.92,29.75,8,1,9,0.00
2012-7-6,87.9,70.3,57.5,65.9,60.5,55.6,96,74,37,29.95,29.86,8,1,9,0.00
2012-7-7,76.3,70.7,65.3,69.1,66.4,62.7,92,86,74,29.88,29.82,7,0,8,0.00
2012-7-8,85.5,70.3,62.3,64.5,57.1,42.7,96,68,23,29.93,29.83,6,0,9,0.00
2012-7-9,84.7,66.0,53.6,56.0,48.5,36.9,93,58,18,30.01,29.90,8,1,9,0.00
2012-7-10,81.0,64.6,52.3,55.5,50.1,44.5,86,62,31,30.10,29.98,8,2,10,0.00
2012-7-11,92.0,69.7,56.3,58.9,49.7,29.8,92,58,12,30.20,30.09,9,2,10,0.00
2012-7-12,93.8,73.8,60.5,62.3,53.6,40.5,90,56,16,30.20,30.14,10,2,10,0.00
2012-7-13,94.7,75.9,63.7,64.3,55.7,38.9,88,57,15,30.23,30.15,8,2,9,0.00
2012-7-14,93.2,76.6,67.3,65.5,60.7,50.6,83,62,24,30.23,30.14,7,2,9,0.00
2012-7-15,80.5,72.5,66.9,68.5,65.0,58.7,94,78,62,30.15,29.93,6,1,8,0.00
2012-7-16,85.7,73.9,68.3,70.5,67.6,64.7,94,82,52,29.94,29.84,6,0,8,0.00
2012-7-17,90.0,74.8,67.3,68.6,65.5,59.3,94,76,40,29.84,29.68,8,1,10,0.00
2012-7-18,86.1,73.9,62.5,69.0,63.5,53.2,95,73,41,30.00,29.77,7,0,8,0.00
2012-7-19,80.3,65.9,55.5,56.3,51.7,48.3,90,63,34,30.07,29.94,8,1,10,0.00
2012-7-20,84.1,68.1,59.7,54.4,50.0,45.8,75,54,27,30.10,30.03,9,1,12,0.00
2012-7-21,89.6,69.3,56.1,60.7,52.0,37.7,95,62,17,30.11,30.06,7,1,8,0.00
2012-7-22,90.4,73.0,61.2,61.6,55.7,48.1,82,58,24,30.14,30.07,7,0,8,0.00
2012-7-23,86.1,74.1,66.2,68.1,64.5,58.5,92,73,48,30.10,29.76,5,0,8,0.00
2012-7-24,82.5,70.1,60.4,72.1,63.6,53.4,95,81,44,29.78,29.64,10,1,14,0.00
2012-7-25,83.8,66.8,56.3,57.4,53.8,46.3,93,67,28,29.92,29.78,8,1,10,0.00
2012-7-26,67.3,64.5,61.5,66.5,61.7,55.2,98,91,78,29.79,29.58,7,0,10,0.00
2012-7-27,72.4,67.3,64.6,68.4,65.6,62.9,98,94,85,29.94,29.64,8,0,8,0.00
2012-7-28,76.3,68.1,63.0,67.9,64.6,61.5,96,89,71,30.01,29.92,6,0,8,0.00
2012-7-29,82.5,68.5,63.1,68.1,64.3,61.0,97,87,52,30.08,29.98,7,0,12,0.02
2012-7-30,88.3,72.0,62.2,67.6,62.3,54.0,99,76,32,30.12,30.06,3,0,4,0.00
2012-7-31,91.9,73.6,63.3,66.3,58.1,42.1,96,66,19,30.08,29.93,8,0,11,0.00
2012-8-1,84.9,69.6,60.7,66.8,62.4,56.5,94,79,46,29.94,29.84,6,0,9,0.00
2012-8-2,88.7,74.6,66.9,68.9,64.1,57.7,95,73,37,29.94,29.86,5,0,5,0.00
2012-8-3,92.0,75.2,66.1,67.5,63.4,59.4,88,69,37,30.15,29.91,9,1,11,0.00
2012-8-4,92.7,74.2,65.6,69.6,64.2,56.2,86,73,40,30.26,30.15,14,2,19,0.00
2012-8-5,84.3,75.7,70.9,73.3,67.8,63.1,93,77,55,30.22,29.90,8,1,11,0.00
2012-8-6,77.4,68.3,60.1,69.0,60.9,55.4,95,79,48,30.05,29.97,9,0,9,0.00
2012-8-7,87.0,68.3,55.3,61.5,54.6,44.3,97,68,24,30.02,29.97,7,0,9,0.00
2012-8-8,90.8,71.3,59.5,63.8,56.8,41.6,95,67,19,30.03,29.96,10,1,10,0.00
2012-8-9,90.4,72.5,64.1,69.6,63.9,57.8,94,77,40,29.99,29.89,7,1,10,0.00
2012-8-10,76.6,70.5,66.9,70.8,66.1,63.3,96,86,70,29.92,29.84,7,0,13,0.00
2012-8-11,81.6,71.8,64.7,69.1,65.5,62.9,95,81,60,29.94,29.84,7,1,11,0.00
2012-8-12,82.6,72.2,65.1,67.2,62.8,54.9,97,75,40,29.96,29.91,5,0,6,0.00
2012-8-13,79.0,68.4,60.9,64.4,61.8,58.9,95,80,54,29.99,29.92,5,0,6,0.00
2012-8-14,76.5,68.4,60.4,64.2,61.6,58.8,96,80,61,29.99,29.92,0,0,8,0.00
2012-8-15,79.8,71.0,66.2,64.9,62.9,60.0,90,76,54,29.94,29.86,6,0,7,0.00
2012-8-16,82.5,68.8,60.6,65.8,61.4,56.2,95,79,41,29.93,29.86,7,0,10,0.00
2012-8-17,82.0,68.0,58.7,65.2,60.7,57.7,99,79,50,29.87,29.77,7,1,9,0.00
2012-8-18,83.7,66.2,57.8,60.3,54.4,43.9,95,70,25,29.94,29.85,9,1,10,0.00
2012-8-19,80.0,63.4,51.5,54.4,50.8,45.1,91,68,30,29.98,29.91,9,1,9,0.00
2012-8-20,84.3,65.8,53.8,58.9,52.5,42.8,94,68,24,29.92,29.85,7,1,9,0.00
2012-8-21,86.4,67.6,58.4,60.4,54.6,42.9,93,68,23,30.09,29.92,7,1,10,0.00
2012-8-22,84.7,66.5,53.2,59.1,52.1,42.3,94,66,24,30.15,30.08,8,2,10,0.00
2012-8-23,88.6,69.8,58.8,61.3,55.9,46.9,93,66,24,30.16,30.11,9,2,10,0.00
2012-8-24,93.1,71.6,59.2,62.1,56.7,47.8,92,64,22,30.24,30.14,10,2,10,0.00
2012-8-25,88.4,72.0,63.1,65.4,59.7,54.4,86,67,35,30.33,30.23,10,2,10,0.00
2012-8-26,96.5,74.6,61.9,62.1,58.5,47.6,88,61,19,30.35,30.24,6,1,8,0.00
2012-8-27,80.3,70.1,62.0,67.2,61.7,57.2,92,76,47,30.24,29.92,6,1,8,0.00
2012-8-28,83.8,68.3,57.9,69.2,63.8,53.0,97,86,48,29.95,29.82,7,0,11,0.00
2012-8-29,88.7,61.7,49.4,54.2,49.7,36.9,97,70,17,30.01,29.94,9,1,10,0.00
2012-8-30,87.2,64.7,50.6,55.7,52.2,48.7,96,68,27,30.03,29.95,7,1,10,0.00
2012-8-31,88.3,71.6,60.6,64.3,56.7,52.2,81,61,31,30.02,29.84,0,0,0,0.00
2012-9-1,94.7,70.4,62.9,64.9,59.3,43.6,93,71,18,30.11,29.92,6,0,8,0.00
2012-9-2,92.4,68.6,59.2,61.1,52.1,29.9,87,61,11,30.14,30.07,7,1,10,0.00
2012-9-3,85.8,68.4,55.2,59.0,53.7,46.2,93,64,26,30.17,30.11,9,2,10,0.00
2012-9-4,68.8,65.4,61.3,66.6,62.4,56.0,96,90,71,30.12,29.80,9,0,10,0.00
2012-9-5,71.8,66.6,61.3,68.3,65.0,59.9,98,95,86,29.89,29.68,4,0,9,0.00
2012-9-6,80.8,67.6,59.2,67.3,62.5,58.6,99,85,54,29.90,29.84,5,0,6,0.00
2012-9-7,83.5,69.8,61.9,66.6,61.3,55.0,97,78,38,29.98,29.84,7,0,9,0.00
2012-9-8,82.5,70.2,59.4,66.1,62.4,58.0,96,78,47,29.86,29.51,10,2,13,0.00
2012-9-9,72.8,61.3,50.9,58.2,53.4,49.2,98,78,47,29.90,29.73,6,0,7,0.00
2012-9-10,65.8,56.1,49.5,53.7,47.8,43.2,95,75,46,30.09,29.89,10,1,11,0.00
2012-9-11,71.2,55.9,43.9,50.2,46.1,40.9,98,73,36,30.22,30.08,6,0,7,0.00
2012-9-12,80.1,62.7,49.7,56.6,50.8,43.6,96,70,29,30.32,30.21,8,1,9,0.00
2012-9-13,83.5,66.9,55.8,59.0,54.9,49.8,94,70,32,30.33,30.24,8,1,10,0.00
2012-9-14,82.5,68.5,58.0,61.9,57.2,54.2,95,71,40,30.25,30.05,8,1,9,0.00
2012-9-15,66.4,59.4,52.8,55.5,50.6,46.5,89,74,52,30.10,30.02,6,0,12,0.00
2012-9-16,66.4,55.6,48.2,49.2,44.3,35.4,93,70,32,30.09,29.98,6,1,9,0.00
2012-9-17,78.7,59.8,46.8,54.5,50.1,45.1,95,74,38,30.07,29.99,7,1,8,0.00
2012-9-18,67.3,62.8,57.0,65.9,58.3,48.4,96,86,62,30.00,29.57,12,2,22,0.00
2012-9-19,65.3,56.3,44.6,63.0,49.0,42.5,99,79,46,30.19,29.63,8,0,9,0.00
2012-9-20,69.5,55.1,43.6,47.8,43.3,39.3,96,69,34,30.22,30.09,9,1,15,0.00
2012-9-21,76.5,61.8,51.5,56.0,50.1,46.2,93,68,37,30.10,30.00,9,1,10,0.00
2012-9-22,77.8,61.9,50.9,58.3,54.2,49.4,97,78,46,30.02,29.78,8,1,10,0.00
2012-9-23,62.0,53.9,44.1,57.3,48.9,42.7,97,84,55,30.07,29.82,6,0,8,0.00
2012-9-24,60.4,49.5,40.8,47.8,42.7,40.0,100,79,47,30.09,30.02,6,0,7,0.00
2012-9-25,70.9,56.7,47.2,45.6,41.8,35.4,83,61,28,30.08,30.03,8,1,9,0.00
2012-9-26,60.7,58.3,55.7,58.4,53.8,44.4,94,86,63,30.06,29.98,5,0,8,0.00
2012-9-27,63.0,54.9,46.2,58.4,47.2,39.7,97,78,46,30.22,30.01,7,0,9,0.00
2012-9-28,52.7,49.1,44.8,52.3,47.4,41.2,99,94,84,30.22,29.98,5,0,10,0.00
2012-9-29,55.6,52.6,50.5,54.9,52.3,50.1,100,99,98,29.98,29.87,0,0,3,0.00
2012-9-30,53.4,51.9,49.6,53.3,51.8,49.6,100,100,98,29.89,29.64,0,0,0,0.00
2012-10-1,56.0,52.4,49.1,55.3,52.0,49.1,100,99,96,29.91,29.59,0,0,5,0.00
2012-10-2,60.6,56.6,51.4,57.9,55.2,51.2,100,95,88,30.05,29.91,0,0,6,0.00
2012-10-3,64.0,61.1,58.2,63.5,60.7,57.5,100,99,97,30.14,30.01,4,0,6,0.00
2012-10-4,65.4,63.0,59.3,65.2,62.6,58.8,100,99,97,30.15,30.04,0,0,0,0.00
2012-10-5,73.9,63.2,54.4,61.7,56.9,51.2,100,82,46,30.04,29.89,0,0,0,0.00
2012-10-6,63.5,56.9,45.4,59.5,54.6,43.3,99,92,81,29.91,29.71,0,0,0,0.00
2012-10-7,52.2,46.8,42.3,44.6,42.4,40.0,97,85,65,30.02,29.91,0,0,0,0.00
2012-10-8,55.4,46.2,40.6,46.8,42.1,37.6,100,87,55,30.25,30.01,0,0,0,0.00
2012-10-9,57.2,47.9,39.7,46.9,43.1,38.6,99,85,61,30.23,30.07,0,0,0,0.00
2012-10-10,56.5,51.3,44.5,52.6,48.3,44.0,100,90,80,30.07,29.70,0,0,0,0.00
2012-10-11,51.5,45.0,39.5,43.9,37.0,31.6,98,75,48,30.04,29.78,0,0,0,0.00
2012-10-12,48.1,42.0,31.1,41.7,34.1,27.1,99,74,55,30.31,29.91,0,0,0,0.00
2012-10-13,51.0,38.7,27.2,30.8,27.6,24.3,98,68,38,30.39,30.17,7,0,9,0.00
2012-10-14,55.4,47.4,39.4,55.3,46.5,29.4,100,97,63,30.18,29.82,5,0,9,0.00
2012-10-15,66.7,58.2,52.1,58.6,54.7,51.5,98,88,71,29.82,29.58,10,1,12,0.00
2012-10-16,52.8,44.4,36.1,51.4,39.9,34.2,96,84,71,29.84,29.59,8,2,13,0.00
2012-10-17,57.7,44.1,32.7,40.8,36.1,32.6,100,77,42,29.94,29.84,8,0,9,0.00
2012-10-18,68.8,55.0,43.2,43.3,37.8,28.5,86,56,22,30.02,29.93,12,2,18,0.00
2012-10-19,59.3,56.5,52.7,58.8,53.1,39.3,99,89,61,30.02,29.67,13,2,20,0.00
2012-10-20,69.5,59.3,47.6,59.9,54.0,45.2,99,84,45,29.71,29.59,10,1,17,0.00
2012-10-21,53.1,47.2,43.0,48.0,45.1,41.5,99,92,70,29.86,29.71,9,1,13,0.00
2012-10-22,61.1,50.1,44.0,46.9,43.3,39.1,99,80,46,30.00,29.85,9,1,18,0.00
2012-10-23,59.6,47.5,40.9,47.7,43.3,40.7,100,87,58,30.10,30.00,0,0,0,0.00
2012-10-24,60.2,47.6,39.2,41.5,36.8,31.6,95,68,34,30.17,30.09,6,0,8,0.00
2012-10-25,65.0,53.6,44.4,46.5,42.5,36.7,89,68,47,30.22,30.16,7,0,9,0.00
2012-10-26,62.9,54.1,47.4,54.1,50.8,45.9,98,89,71,30.19,30.10,5,0,7,0.00
2012-10-27,68.8,58.1,50.7,55.7,52.4,49.5,98,82,58,30.13,29.98,9,1,11,0.00
2012-10-28,61.4,55.5,50.8,52.3,42.7,34.2,93,64,44,30.00,29.81,14,3,18,0.00
2012-10-29,58.4,53.8,48.9,56.6,50.8,44.6,96,90,77,29.84,29.18,20,5,35,0.00
2012-10-30,63.7,58.4,53.6,57.3,52.2,47.4,97,80,59,29.49,29.21,18,5,28,0.00
2012-10-31,55.8,48.7,43.0,51.3,45.9,40.0,97,90,86,29.48,29.39,11,1,15,0.00
2012-11-1,44.2,42.5,40.9,42.9,41.0,38.8,100,94,88,29.47,29.43,6,0,8,0.00
2012-11-2,43.3,41.0,38.5,41.3,38.3,34.1,100,91,73,29.62,29.47,9,1,13,0.00
2012-11-3,43.9,39.3,37.2,37.9,35.9,33.2,99,88,69,29.82,29.61,8,1,10,0.00
2012-11-4,41.3,37.0,32.9,36.1,32.7,26.4,97,85,68,29.94,29.80,10,2,12,0.00
2012-11-5,36.2,32.3,29.1,26.9,22.2,17.0,80,67,52,30.06,29.92,11,2,13,0.00
2012-11-6,37.9,30.1,23.6,22.4,19.6,16.1,89,66,46,30.15,30.06,12,1,18,0.00
2012-11-7,33.9,30.5,26.4,22.1,18.9,15.8,70,62,53,30.10,29.85,14,2,23,0.00
2012-11-8,34.8,32.1,29.4,32.3,27.1,21.6,99,82,66,29.86,29.77,8,1,12,0.00
2012-11-9,43.4,35.6,26.5,34.6,28.3,24.2,100,77,49,30.06,29.84,8,2,12,0.00
2012-11-10,47.0,39.3,33.5,37.2,31.4,26.2,95,75,48,30.35,30.05,8,2,11,0.00
2012-11-11,62.3,50.8,40.3,41.3,37.0,27.9,83,60,38,30.37,30.29,8,1,11,0.00
2012-11-12,69.8,58.0,48.6,49.0,40.2,34.1,75,54,31,30.35,30.07,16,3,19,0.00
2012-11-13,61.8,41.7,31.2,51.0,37.6,27.1,100,86,66,30.40,30.02,14,2,19,0.00
2012-11-14,41.6,32.8,27.1,31.0,26.0,23.5,93,77,54,30.52,30.40,9,1,13,0.00
2012-11-15,39.7,30.7,25.6,28.6,26.0,23.2,97,83,58,30.42,30.25,8,1,9,0.00
2012-11-16,38.1,29.5,23.8,31.9,27.3,23.8,100,92,70,30.40,30.23,6,1,8,0.00
2012-11-17,41.4,32.1,26.3,34.3,28.2,25.5,100,87,61,30.60,30.40,8,1,9,0.00
2012-11-18,44.8,33.3,25.8,29.9,25.8,22.8,97,77,43,30.64,30.51,9,2,10,0.00
2012-11-19,45.9,34.7,27.9,32.1,28.0,26.4,96,78,48,30.52,30.18,8,4,10,0.00
2012-11-20,43.3,35.7,29.5,31.6,28.9,25.8,92,77,59,30.18,30.08,6,1,7,0.00
2012-11-21,50.2,39.3,33.2,30.0,26.2,21.8,86,62,33,30.19,30.10,8,3,10,0.00
2012-11-22,52.1,40.1,32.5,31.3,27.2,23.8,84,62,35,30.19,30.02,7,2,9,0.00
2012-11-23,58.9,46.1,36.1,40.3,30.9,25.9,80,58,29,30.01,29.52,12,2,15,0.00
2012-11-24,46.0,34.1,26.6,40.6,24.1,17.9,88,67,50,29.59,29.48,14,7,21,0.00
2012-11-25,30.8,27.3,24.3,24.3,17.6,12.1,88,67,47,29.75,29.58,14,7,19,0.00
2012-11-26,36.9,31.1,27.1,30.6,26.5,23.1,99,84,65,30.13,29.74,13,2,19,0.00
2012-11-27,37.1,32.2,29.6,27.8,26.0,23.7,88,78,60,30.19,30.12,7,0,8,0.00
2012-11-28,35.6,31.4,29.1,30.2,26.3,22.7,95,82,65,30.15,30.02,8,2,10,0.00
2012-11-29,36.7,31.3,26.0,30.3,23.9,18.9,95,74,54,30.17,30.01,14,5,20,0.00
2012-11-30,26.8,21.0,16.7,25.1,14.9,10.8,93,77,62,30.45,30.18,9,0,9,0.00
2012-12-1,36.9,27.2,19.5,35.4,24.5,13.8,95,89,76,30.47,30.33,10,0,14,0.00
2012-12-2,50.7,44.4,36.9,46.1,41.6,35.5,100,90,70,30.33,29.93,10,1,14,0.00
2012-12-3,46.7,42.8,36.6,46.7,42.0,35.9,100,97,91,30.21,29.93,10,1,12,0.00
2012-12-4,55.8,46.4,36.1,52.5,45.3,36.1,100,96,86,30.20,29.82,9,1,14,0.00
2012-12-5,53.5,38.5,25.4,52.9,34.6,19.0,100,86,69,30.14,29.79,15,4,20,0.00
2012-12-6,31.8,26.5,23.1,23.4,20.8,18.4,92,79,65,30.29,30.13,9,1,14,0.00
2012-12-7,39.9,32.9,26.6,35.3,26.0,19.9,100,77,50,30.13,29.96,4,0,9,0.00
2012-12-8,44.8,39.4,34.6,44.8,39.4,34.6,100,100,100,29.96,29.74,7,0,8,0.00
2012-12-9,43.0,36.3,30.9,43.0,33.7,29.5,100,91,76,30.21,29.92,10,1,19,0.00
2012-12-10,51.3,44.6,35.3,51.1,44.0,33.6,100,98,90,29.97,29.43,18,2,21,0.00
2012-12-11,39.9,32.6,27.2,39.9,31.5,24.1,100,95,88,30.10,29.54,8,1,11,0.00
2012-12-12,36.0,29.4,23.3,29.8,26.3,22.5,99,88,70,30.33,30.10,9,1,13,0.00
2012-12-13,36.2,30.2,24.9,30.4,27.2,24.9,100,89,69,30.36,30.16,7,0,8,0.00
2012-12-14,37.6,33.1,27.6,31.2,27.9,25.3,95,82,62,30.16,30.01,9,1,11,0.00
2012-12-15,34.2,27.0,20.7,31.1,22.8,18.1,96,85,65,30.26,30.11,5,0,8,0.00
2012-12-16,33.7,29.5,21.0,32.0,25.6,16.7,97,85,69,30.16,29.91,12,3,20,0.00
2012-12-17,37.2,33.3,31.4,36.3,31.8,29.2,100,94,91,29.91,29.67,16,2,21,0.00
2012-12-18,40.8,38.3,36.0,40.7,38.1,35.2,100,99,95,29.66,29.37,17,3,31,0.00
2012-12-19,37.0,33.8,32.5,37.0,33.8,32.3,100,100,99,30.02,29.43,0,0,6,0.00
2012-12-20,34.3,31.9,28.3,32.8,30.9,28.3,100,96,89,30.14,29.83,12,2,17,0.00
2012-12-21,45.8,37.0,33.1,45.5,36.2,32.0,100,97,95,29.83,28.86,27,8,43,0.00
2012-12-22,33.8,26.8,20.6,32.3,25.0,17.0,100,93,82,29.59,29.05,14,6,22,0.00
2012-12-23,29.9,24.7,18.1,27.8,21.2,14.6,96,87,71,29.73,29.58,12,4,15,0.00
2012-12-24,30.0,24.9,19.9,28.1,21.0,17.5,100,86,64,29.98,29.73,10,2,14,0.00
2012-12-25,25.7,20.5,10.8,24.1,19.3,10.3,100,95,91,30.20,29.87,8,0,9,0.00
2012-12-26,26.2,17.1,8.4,24.4,15.5,8.0,100,93,82,30.26,29.78,16,2,26,0.00
2012-12-27,28.0,24.6,20.2,28.0,24.5,20.2,100,100,96,29.78,29.45,11,1,18,0.00
2012-12-28,30.2,24.0,20.2,28.1,23.6,20.2,100,98,92,29.94,29.66,7,0,13,0.00
2012-12-29,26.6,24.3,21.1,26.5,24.3,20.8,100,100,99,29.93,29.46,3,0,6,0.00
2012-12-30,21.5,15.4,7.4,21.5,14.5,6.0,100,96,90,29.96,29.46,10,1,14,0.00
2012-12-31,27.6,20.1,10.5,27.3,19.8,9.7,100,99,93,29.95,29.62,10,2,12,0.00
2013-1-1,28.3,19.3,4.9,28.3,15.7,2.7,100,86,73,29.82,29.59,13,2,16,0.00